Time;durP1;ratioP1;P1;durP2;ratioP2;P2;SDS_P1;SDS_P2;PMS_P1;PMS_P2;Temp;Humidity;BMP_temperature;BMP_pressure;BME280_temperature;BME280_humidity;BME280_pressure;Samples;Min_cycle;Max_cycle;Signal;HPM_P1;HPM_P2
2023/05/08 00:01:31;;;;;;;5.35;3.00;;;17.90;67.10;;;;;;4977056;28;20062;-45
2023/05/08 00:03:58;;;;;;;4.35;2.30;;;17.90;66.90;;;;;;4976485;28;20061;-48
2023/05/08 00:06:26;;;;;;;2.40;2.15;;;17.90;66.90;;;;;;4977053;28;20391;-46
2023/05/08 00:08:54;;;;;;;5.28;2.35;;;17.90;67.10;;;;;;4977695;28;20422;-46
2023/05/08 00:11:22;;;;;;;2.83;2.10;;;17.90;67.10;;;;;;4977161;28;20065;-46
2023/05/08 00:13:50;;;;;;;3.05;2.10;;;17.90;67.20;;;;;;4976846;28;20054;-46
2023/05/08 00:16:17;;;;;;;3.25;2.28;;;17.90;67.20;;;;;;4976571;28;20089;-45
2023/05/08 00:18:44;;;;;;;2.50;2.13;;;17.90;67.30;;;;;;4978177;28;20522;-47
2023/05/08 00:21:11;;;;;;;4.28;2.58;;;17.90;67.30;;;;;;4977426;28;20054;-45
2023/05/08 00:23:38;;;;;;;3.80;2.10;;;17.90;67.30;;;;;;4974976;28;20410;-46
2023/05/08 00:26:06;;;;;;;2.53;2.33;;;17.90;67.30;;;;;;4976882;28;20375;-46
2023/05/08 00:28:34;;;;;;;3.10;2.28;;;17.90;67.30;;;;;;4976634;28;20046;-45
2023/05/08 00:31:02;;;;;;;5.00;2.85;;;17.90;67.40;;;;;;4979071;28;20054;-46
2023/05/08 00:33:29;;;;;;;4.28;3.15;;;17.90;67.40;;;;;;4982210;28;20494;-46
2023/05/08 00:36:00;;;;;;;3.53;2.72;;;17.90;67.30;;;;;;4980481;28;20501;-46
2023/05/08 00:38:29;;;;;;;2.85;2.33;;;17.90;67.40;;;;;;4981608;28;20065;-46
2023/05/08 00:40:57;;;;;;;3.88;2.75;;;17.90;67.30;;;;;;4980673;28;20046;-46
2023/05/08 00:43:26;;;;;;;3.08;2.58;;;17.90;67.30;;;;;;4978534;28;20054;-48
2023/05/08 00:45:57;;;;;;;3.10;2.60;;;17.90;67.30;;;;;;4978623;28;20050;-46
2023/05/08 00:48:27;;;;;;;4.20;2.75;;;17.90;67.30;;;;;;4979185;28;20418;-45
2023/05/08 00:50:55;;;;;;;3.20;2.70;;;17.90;67.30;;;;;;4978148;28;20413;-46
2023/05/08 00:53:23;;;;;;;5.05;3.30;;;17.90;67.20;;;;;;4981857;28;20259;-47
2023/05/08 00:55:51;;;;;;;3.63;2.80;;;17.90;67.20;;;;;;4981506;28;20050;-46
2023/05/08 00:58:19;;;;;;;4.07;2.72;;;17.90;67.10;;;;;;4977525;28;20069;-45
2023/05/08 01:00:47;;;;;;;5.13;3.10;;;17.90;67.20;;;;;;4979743;28;20054;-45
2023/05/08 01:03:17;;;;;;;6.20;3.28;;;17.90;67.20;;;;;;4986936;23;20421;-91
2023/05/08 01:05:45;;;;;;;4.00;2.90;;;17.80;67.20;;;;;;4964282;28;20061;-91
2023/05/08 01:08:13;;;;;;;3.70;2.83;;;17.90;67.20;;;;;;4965547;28;20050;-90
2023/05/08 01:10:46;;;;;;;3.78;3.30;;;17.90;67.20;;;;;;4971648;28;20054;-90
2023/05/08 01:13:20;;;;;;;4.38;3.28;;;17.90;67.20;;;;;;4973798;28;20081;-90
2023/05/08 01:16:02;;;;;;;3.47;2.72;;;17.80;67.10;;;;;;4970450;28;20494;-91
2023/05/08 01:18:37;;;;;;;4.50;2.97;;;17.80;67.20;;;;;;4965382;28;20065;-91
2023/05/08 01:21:13;;;;;;;4.88;2.90;;;17.90;67.20;;;;;;4970935;28;20054;-90
2023/05/08 01:24:08;;;;;;;3.42;3.10;;;17.90;67.20;;;;;;4965262;28;20530;-90
2023/05/08 01:27:18;;;;;;;4.72;3.50;;;17.90;67.40;;;;;;4966392;28;20588;-90
2023/05/08 01:30:16;;;;;;;3.15;2.72;;;17.90;67.40;;;;;;4946764;28;20401;-90
2023/05/08 01:32:55;;;;;;;5.45;3.15;;;17.90;67.30;;;;;;4965812;28;20055;-90
2023/05/08 01:35:29;;;;;;;6.68;3.42;;;17.80;67.20;;;;;;4966777;28;20058;-90
2023/05/08 01:37:58;;;;;;;;;;;17.80;67.20;;;;;;4968197;28;20054;-90
2023/05/08 01:40:37;;;;;;;5.35;3.00;;;17.90;67.10;;;;;;4965366;28;20279;-90
2023/05/08 01:43:13;;;;;;;6.63;3.00;;;17.90;67.10;;;;;;4965156;28;20054;-90
2023/05/08 01:45:44;;;;;;;4.18;3.33;;;17.90;67.20;;;;;;4964949;28;20047;-90
2023/05/08 01:48:17;;;;;;;3.75;2.97;;;17.80;67.90;;;;;;4970913;28;20066;-91
2023/05/08 01:50:47;;;;;;;4.88;3.50;;;17.90;67.30;;;;;;4963488;28;20054;-91
2023/05/08 01:53:21;;;;;;;8.68;3.03;;;17.80;67.20;;;;;;4962190;28;20054;-90
2023/05/08 01:55:53;;;;;;;3.13;2.80;;;17.80;67.20;;;;;;4960711;28;20081;-91
2023/05/08 01:58:23;;;;;;;283.45;9.95;;;17.80;67.30;;;;;;4961717;28;20524;-91
2023/05/08 02:00:52;;;;;;;26.50;3.95;;;17.80;67.30;;;;;;4961609;28;20418;-90
2023/05/08 02:03:23;;;;;;;55.75;4.25;;;17.80;67.20;;;;;;4964360;28;20050;-90
2023/05/08 02:05:52;;;;;;;85.47;5.15;;;17.80;67.00;;;;;;4959417;28;20067;-90
2023/05/08 02:08:22;;;;;;;83.32;4.75;;;17.80;66.90;;;;;;4959355;28;20062;-90
2023/05/08 02:10:51;;;;;;;183.90;8.35;;;17.80;66.90;;;;;;4959825;28;20067;-90
2023/05/08 02:13:20;;;;;;;140.50;5.30;;;17.70;66.90;;;;;;4957039;28;20069;-90
2023/05/08 02:15:50;;;;;;;159.02;5.97;;;17.70;66.90;;;;;;4957901;28;20047;-90
2023/05/08 02:18:20;;;;;;;205.52;6.75;;;17.60;67.10;;;;;;4956931;28;20431;-90
2023/05/08 02:20:51;;;;;;;151.20;6.03;;;17.60;67.30;;;;;;4958312;28;20430;-89
2023/05/08 02:23:19;;;;;;;24.90;3.47;;;17.50;67.40;;;;;;4959658;28;20066;-90
2023/05/08 02:25:48;;;;;;;2.90;2.60;;;17.50;67.50;;;;;;4959946;28;20053;-90
2023/05/08 02:28:16;;;;;;;3.38;3.08;;;17.50;67.70;;;;;;4964776;28;20053;-90
2023/05/08 02:30:44;;;;;;;5.03;3.92;;;17.50;67.80;;;;;;4956809;28;20077;-90
2023/05/08 02:33:13;;;;;;;4.70;3.08;;;17.50;67.90;;;;;;4965430;28;20505;-90
2023/05/08 02:35:44;;;;;;;6.25;3.20;;;17.50;68.00;;;;;;4960349;28;20521;-90
2023/05/08 02:38:15;;;;;;;3.67;3.00;;;17.50;68.20;;;;;;4959257;28;20606;-90
2023/05/08 02:40:47;;;;;;;4.18;3.55;;;17.50;68.30;;;;;;4956986;28;20054;-90
2023/05/08 02:43:14;;;;;;;4.03;3.45;;;17.50;68.40;;;;;;4959242;28;20391;-90
2023/05/08 02:45:48;;;;;;;3.20;2.90;;;17.50;68.30;;;;;;4955197;28;20054;-90
2023/05/08 02:48:24;;;;;;;3.55;3.20;;;17.60;68.40;;;;;;4958832;28;20058;-90
2023/05/08 02:50:58;;;;;;;6.18;3.85;;;17.60;68.30;;;;;;4958236;28;20058;-91
2023/05/08 02:53:34;;;;;;;4.07;3.63;;;17.50;68.20;;;;;;4965966;28;20057;-91
2023/05/08 02:56:08;;;;;;;5.03;4.13;;;17.50;68.20;;;;;;4959731;28;20059;-87
2023/05/08 02:58:43;;;;;;;5.32;4.43;;;17.60;68.20;;;;;;4958732;28;20057;-86
2023/05/08 03:01:20;;;;;;;7.00;4.97;;;17.60;68.10;;;;;;4955693;28;20051;-86
2023/05/08 03:04:01;;;;;;;6.03;5.43;;;17.60;68.00;;;;;;4959300;28;20073;-87
2023/05/08 03:06:35;;;;;;;6.53;5.63;;;17.60;68.00;;;;;;4956405;28;20066;-87
2023/05/08 03:09:07;;;;;;;8.00;5.68;;;17.60;67.90;;;;;;4957135;28;20051;-90
2023/05/08 03:11:41;;;;;;;6.78;5.45;;;17.60;67.80;;;;;;4955999;28;20066;-88
2023/05/08 03:14:15;;;;;;;8.18;5.80;;;17.60;67.70;;;;;;4956600;28;20147;-89
2023/05/08 03:16:45;;;;;;;7.10;5.43;;;17.60;67.60;;;;;;4952053;28;20066;-87
2023/05/08 03:19:19;;;;;;;7.00;5.55;;;17.60;67.50;;;;;;4960657;28;20051;-90
2023/05/08 03:21:48;;;;;;;6.88;5.35;;;17.60;67.50;;;;;;4957989;28;20051;-86
2023/05/08 03:24:19;;;;;;;10.98;6.75;;;17.60;67.40;;;;;;4958082;28;20495;-88
2023/05/08 03:26:47;;;;;;;8.95;6.30;;;17.70;67.50;;;;;;4959395;28;20055;-87
2023/05/08 03:29:16;;;;;;;7.57;6.53;;;17.70;67.40;;;;;;4958786;28;20689;-88
2023/05/08 03:31:51;;;;;;;9.27;6.65;;;17.60;67.30;;;;;;4954915;28;20058;-86
2023/05/08 03:34:20;;;;;;;8.30;6.25;;;17.70;67.40;;;;;;4958527;28;20065;-86
2023/05/08 03:36:48;;;;;;;8.73;7.20;;;17.60;67.30;;;;;;4965706;28;20062;-86
2023/05/08 03:39:17;;;;;;;8.60;7.55;;;17.70;67.30;;;;;;4962385;28;20055;-86
2023/05/08 03:41:45;;;;;;;10.13;7.47;;;17.60;67.20;;;;;;4961521;28;20471;-87
2023/05/08 03:44:13;;;;;;;10.02;7.93;;;17.60;67.10;;;;;;4976335;28;20053;-86
2023/05/08 03:46:42;;;;;;;8.60;7.28;;;17.60;67.10;;;;;;4979534;28;20050;-86
2023/05/08 03:49:10;;;;;;;9.30;7.38;;;17.60;67.00;;;;;;4978404;28;20073;-86
2023/05/08 03:51:39;;;;;;;8.57;7.32;;;17.60;67.00;;;;;;4977704;28;20054;-86
2023/05/08 03:54:06;;;;;;;8.52;7.63;;;17.60;67.00;;;;;;4979015;28;20398;-87
2023/05/08 03:56:35;;;;;;;10.38;8.15;;;17.60;66.90;;;;;;4979393;28;20414;-87
2023/05/08 03:59:13;;;;;;;9.57;8.05;;;17.60;66.90;;;;;;4979830;28;20042;-88
2023/05/08 04:01:48;;;;;;;9.52;7.50;;;17.60;66.90;;;;;;4977221;28;20586;-87
2023/05/08 04:04:19;;;;;;;10.68;7.72;;;17.60;66.80;;;;;;4976136;28;20050;-88
2023/05/08 04:06:51;;;;;;;9.55;7.70;;;17.60;66.80;;;;;;4976728;28;20054;-88
2023/05/08 04:09:23;;;;;;;8.00;7.00;;;17.60;66.80;;;;;;4975753;28;20047;-88
2023/05/08 04:12:04;;;;;;;9.60;7.95;;;17.60;66.70;;;;;;4976384;28;20058;-87
2023/05/08 04:14:35;;;;;;;10.07;8.68;;;17.60;66.60;;;;;;4979544;28;20490;-87
2023/05/08 04:17:07;;;;;;;10.15;8.07;;;17.60;66.60;;;;;;4974288;28;20046;-87
2023/05/08 04:19:38;;;;;;;9.10;7.57;;;17.60;66.50;;;;;;4979075;28;21744;-88
2023/05/08 04:22:07;;;;;;;9.02;7.88;;;17.60;66.40;;;;;;4984025;28;20050;-87
2023/05/08 04:24:40;;;;;;;9.30;6.75;;;17.60;66.40;;;;;;4976796;28;20065;-88
2023/05/08 04:27:10;;;;;;;8.02;7.18;;;17.60;66.40;;;;;;4976455;28;20395;-87
2023/05/08 04:29:37;;;;;;;9.77;8.07;;;17.50;66.40;;;;;;4972410;28;20069;-90
2023/05/08 04:32:06;;;;;;;10.40;7.50;;;17.50;66.30;;;;;;4972503;28;20054;-89
2023/05/08 04:34:33;;;;;;;9.68;7.60;;;17.50;66.40;;;;;;4975885;28;20486;-89
2023/05/08 04:37:01;;;;;;;7.55;6.65;;;17.50;66.40;;;;;;4976629;28;21089;-89
2023/05/08 04:39:28;;;;;;;128.15;63.47;;;17.50;66.50;;;;;;4974513;28;20054;-87
2023/05/08 04:42:01;;;;;;;107.95;55.25;;;17.50;66.50;;;;;;4973593;28;20062;-88
2023/05/08 04:44:31;;;;;;;55.40;30.02;;;17.50;66.50;;;;;;4976942;28;20046;-88
2023/05/08 04:46:58;;;;;;;21.08;14.48;;;17.50;66.40;;;;;;4972188;28;20057;-89
2023/05/08 04:49:25;;;;;;;13.07;9.68;;;17.60;66.50;;;;;;4977894;28;20507;-89
2023/05/08 04:51:52;;;;;;;11.55;8.15;;;17.50;66.40;;;;;;4977557;28;20067;-89
2023/05/08 04:54:20;;;;;;;9.50;7.70;;;17.50;66.40;;;;;;4968414;28;20062;-88
2023/05/08 04:56:47;;;;;;;8.68;7.43;;;17.50;66.40;;;;;;4974937;28;20058;-88
2023/05/08 04:59:14;;;;;;;9.02;7.70;;;17.50;66.40;;;;;;4976729;28;20418;-90
2023/05/08 05:01:43;;;;;;;8.57;7.50;;;17.50;66.50;;;;;;4974843;28;20489;-89
2023/05/08 05:04:10;;;;;;;12.38;7.47;;;17.50;66.60;;;;;;4974786;28;20054;-87
2023/05/08 05:06:38;;;;;;;10.57;7.85;;;17.50;66.50;;;;;;4985048;28;20458;-88
2023/05/08 05:09:06;;;;;;;20.73;13.43;;;17.50;66.50;;;;;;4977185;28;20375;-88
2023/05/08 05:11:33;;;;;;;76.90;38.22;;;17.50;66.50;;;;;;4978980;28;20058;-87
2023/05/08 05:14:02;;;;;;;59.25;33.42;;;17.50;66.50;;;;;;4981620;28;20050;-87
2023/05/08 05:16:29;;;;;;;22.55;15.02;;;17.50;66.60;;;;;;4978739;28;20410;-90
2023/05/08 05:18:58;;;;;;;11.68;9.55;;;17.50;66.70;;;;;;4976104;28;20065;-88
2023/05/08 05:21:26;;;;;;;17.75;9.48;;;17.50;66.80;;;;;;4973780;28;20058;-86
2023/05/08 05:23:54;;;;;;;10.85;8.57;;;17.50;66.80;;;;;;4975410;28;20057;-85
2023/05/08 05:26:22;;;;;;;10.45;8.82;;;17.50;66.80;;;;;;4983736;28;20065;-87
2023/05/08 05:28:49;;;;;;;12.90;8.82;;;17.50;66.80;;;;;;4979670;28;20077;-87
2023/05/08 05:31:16;;;;;;;12.07;8.82;;;17.50;66.80;;;;;;4982276;28;20061;-88
2023/05/08 05:33:44;;;;;;;12.88;9.98;;;17.60;66.90;;;;;;4982053;28;20062;-88
2023/05/08 05:36:13;;;;;;;13.68;10.15;;;17.60;66.80;;;;;;4981498;28;20422;-90
2023/05/08 05:38:41;;;;;;;13.95;10.68;;;17.60;66.70;;;;;;4982240;28;20683;-89
2023/05/08 05:41:09;;;;;;;14.30;10.07;;;17.60;66.50;;;;;;4981655;28;20852;-88
2023/05/08 05:43:37;;;;;;;15.35;11.02;;;17.60;66.60;;;;;;4982935;28;20058;-90
2023/05/08 05:46:05;;;;;;;16.25;10.50;;;17.60;66.60;;;;;;4982123;28;20070;-92
2023/05/08 05:48:32;;;;;;;13.98;10.85;;;17.60;66.60;;;;;;4982292;28;20062;-88
2023/05/08 05:50:59;;;;;;;13.25;10.82;;;17.70;66.70;;;;;;4982886;28;20418;-89
2023/05/08 05:53:30;;;;;;;15.57;11.45;;;17.60;66.60;;;;;;4988598;28;20057;-88
2023/05/08 05:55:57;;;;;;;15.02;10.00;;;17.60;66.60;;;;;;4982522;28;20059;-90
2023/05/08 05:58:24;;;;;;;14.20;11.05;;;17.70;66.70;;;;;;4983652;28;20073;-90
2023/05/08 06:26:03;;;;;;;14.15;11.30;;;15.80;71.90;;;;;;5042493;28;20187;-38
2023/05/08 06:28:31;;;;;;;15.15;11.27;;;15.50;72.90;;;;;;5043319;28;20504;-40
2023/05/08 06:30:58;;;;;;;16.75;12.05;;;15.50;73.60;;;;;;5042445;28;20053;-36
2023/05/08 06:33:25;;;;;;;17.75;12.13;;;15.60;73.70;;;;;;5042636;28;20615;-36
2023/05/08 06:35:52;;;;;;;15.88;12.40;;;15.80;73.60;;;;;;5042033;28;20053;-36
2023/05/08 06:38:20;;;;;;;16.35;12.15;;;16.00;73.30;;;;;;5043578;28;20060;-36
2023/05/08 06:40:48;;;;;;;14.50;12.13;;;16.20;73.00;;;;;;5042050;28;20072;-37
2023/05/08 06:43:17;;;;;;;12.98;10.93;;;16.30;72.60;;;;;;5044030;28;20056;-36
2023/05/08 06:45:44;;;;;;;14.95;11.88;;;16.50;72.50;;;;;;5041653;28;20056;-36
2023/05/08 06:48:12;;;;;;;12.10;10.23;;;16.60;72.10;;;;;;5041765;28;20049;-36
2023/05/08 06:50:40;;;;;;;17.75;11.90;;;16.80;71.90;;;;;;5042821;28;20076;-36
2023/05/08 06:53:08;;;;;;;15.38;11.43;;;16.90;71.50;;;;;;5041283;28;20468;-36
2023/05/08 06:55:35;;;;;;;12.90;10.90;;;17.00;71.20;;;;;;5042424;28;20045;-36
2023/05/08 06:58:03;;;;;;;12.38;10.75;;;17.20;70.80;;;;;;5041678;28;20061;-36
2023/05/08 07:00:31;;;;;;;14.70;11.75;;;17.30;70.40;;;;;;5043561;28;21367;-37
2023/05/08 07:02:59;;;;;;;15.02;11.15;;;17.40;70.00;;;;;;5041295;28;20629;-37
2023/05/08 07:05:26;;;;;;;15.48;11.20;;;17.40;70.30;;;;;;5041577;28;20049;-36
2023/05/08 07:07:53;;;;;;;15.63;10.90;;;17.50;69.30;;;;;;5041038;28;20060;-38
2023/05/08 07:10:21;;;;;;;14.27;10.68;;;17.60;69.10;;;;;;5039676;28;20412;-37
2023/05/08 07:12:49;;;;;;;14.80;11.00;;;17.60;68.80;;;;;;5039488;28;20064;-37
2023/05/08 07:15:16;;;;;;;13.15;10.27;;;17.70;68.50;;;;;;5041585;28;20052;-36
2023/05/08 07:17:45;;;;;;;19.08;10.45;;;17.70;68.30;;;;;;5040860;28;20053;-36
2023/05/08 07:20:12;;;;;;;13.00;10.30;;;17.80;68.10;;;;;;5041921;28;20412;-37
2023/05/08 07:22:39;;;;;;;12.25;9.63;;;17.80;67.90;;;;;;5035575;28;20628;-39
2023/05/08 07:25:08;;;;;;;11.35;9.65;;;17.90;67.70;;;;;;5049515;28;20385;-42
2023/05/08 07:27:36;;;;;;;13.23;11.43;;;17.90;67.50;;;;;;5058794;28;20064;-40
2023/05/08 07:30:03;;;;;;;12.10;9.98;;;18.00;67.40;;;;;;5059634;28;20056;-38
2023/05/08 07:32:31;;;;;;;13.10;10.27;;;18.00;67.10;;;;;;5059541;28;20381;-36
2023/05/08 07:35:01;;;;;;;13.93;10.75;;;18.00;66.70;;;;;;5057852;28;20052;-39
2023/05/08 07:37:28;;;;;;;12.18;9.65;;;18.00;66.40;;;;;;5047236;28;20045;-42
2023/05/08 07:39:56;;;;;;;11.82;9.98;;;18.00;66.20;;;;;;5044946;28;20053;-48
2023/05/08 07:42:23;;;;;;;11.40;9.23;;;18.10;66.00;;;;;;5046543;28;20049;-45
2023/05/08 07:44:51;;;;;;;12.15;9.82;;;18.10;65.80;;;;;;5043450;28;20055;-46
2023/05/08 07:47:18;;;;;;;13.52;9.90;;;18.10;65.70;;;;;;5046190;28;20053;-46
2023/05/08 07:49:45;;;;;;;11.23;9.27;;;18.10;65.60;;;;;;5046486;28;20515;-43
2023/05/08 07:52:14;;;;;;;11.52;9.85;;;18.20;65.50;;;;;;5045963;28;20057;-43
2023/05/08 07:54:41;;;;;;;10.32;8.80;;;18.20;65.30;;;;;;5044547;28;20045;-44
2023/05/08 07:57:08;;;;;;;11.27;9.52;;;18.20;65.20;;;;;;5046921;28;20060;-41
2023/05/08 07:59:35;;;;;;;16.02;9.82;;;18.20;65.00;;;;;;5046256;28;20051;-49
2023/05/08 08:02:03;;;;;;;11.25;8.88;;;18.20;64.90;;;;;;5045570;28;20507;-44
2023/05/08 08:04:30;;;;;;;9.40;8.32;;;18.20;64.80;;;;;;5045988;28;20689;-44
2023/05/08 08:06:57;;;;;;;12.18;9.23;;;18.20;64.90;;;;;;5047111;28;20389;-45
2023/05/08 08:09:26;;;;;;;11.13;9.27;;;18.20;64.90;;;;;;5042963;28;20053;-43
2023/05/08 08:11:54;;;;;;;11.98;9.38;;;18.20;64.80;;;;;;5045903;28;20056;-44
2023/05/08 08:14:21;;;;;;;11.23;9.32;;;18.30;64.90;;;;;;5046182;28;20049;-44
2023/05/08 08:16:49;;;;;;;11.45;9.18;;;18.30;64.80;;;;;;5045079;28;20049;-47
2023/05/08 08:19:16;;;;;;;14.00;9.65;;;18.30;64.70;;;;;;5045141;28;20052;-49
2023/05/08 08:21:43;;;;;;;11.32;9.10;;;18.30;64.50;;;;;;5044550;28;20513;-46
2023/05/08 08:24:11;;;;;;;11.57;9.00;;;18.40;64.40;;;;;;5044843;28;20053;-47
2023/05/08 08:26:39;;;;;;;14.00;9.65;;;18.40;64.90;;;;;;5045576;28;20061;-44
2023/05/08 08:29:06;;;;;;;10.73;9.57;;;18.40;63.90;;;;;;5045351;28;20053;-44
2023/05/08 08:31:33;;;;;;;13.18;9.57;;;18.40;63.90;;;;;;5045597;28;20060;-46
2023/05/08 08:34:01;;;;;;;10.48;9.07;;;18.40;63.80;;;;;;5046062;28;20064;-47
2023/05/08 08:36:28;;;;;;;10.38;8.82;;;18.40;63.70;;;;;;5041517;28;20065;-46
2023/05/08 08:52:41;;;;;;;12.30;8.60;;;17.40;66.40;;;;;;5083909;27;20571;-44
2023/05/08 08:55:13;;;;;;;10.98;8.93;;;17.10;67.40;;;;;;5082804;28;20055;-45
2023/05/08 08:57:49;;;;;;;10.27;8.63;;;17.10;68.00;;;;;;5082186;28;20057;-44
2023/05/08 09:00:19;;;;;;;10.10;8.65;;;17.10;67.90;;;;;;5081742;28;20052;-48
2023/05/08 09:02:46;;;;;;;16.25;9.23;;;17.20;67.50;;;;;;5079600;28;20052;-44
2023/05/08 09:05:13;;;;;;;11.25;8.35;;;17.30;67.10;;;;;;5081245;28;20403;-43
2023/05/08 09:07:42;;;;;;;11.32;9.07;;;17.50;66.70;;;;;;5080669;28;20061;-45
2023/05/08 09:10:14;;;;;;;13.60;10.73;;;17.50;66.20;;;;;;5079896;28;20048;-44
2023/05/08 09:12:41;;;;;;;12.55;9.00;;;17.60;65.90;;;;;;5080360;28;20064;-45
2023/05/08 09:15:09;;;;;;;13.98;9.80;;;17.70;65.60;;;;;;5080100;28;20044;-45
2023/05/08 09:17:36;;;;;;;10.38;8.27;;;17.80;65.40;;;;;;5078082;28;20597;-43
2023/05/08 09:20:04;;;;;;;12.32;8.93;;;17.80;65.20;;;;;;5079041;28;20400;-47
2023/05/08 09:22:32;;;;;;;14.13;8.75;;;17.90;65.10;;;;;;5080520;28;20052;-47
2023/05/08 09:25:02;;;;;;;10.95;8.80;;;17.90;65.00;;;;;;5078638;28;20048;-45
2023/05/08 09:27:31;;;;;;;10.32;8.52;;;18.00;65.00;;;;;;5078785;28;20059;-46
2023/05/08 09:30:00;;;;;;;11.32;8.07;;;18.00;64.80;;;;;;5079285;28;20051;-44
2023/05/08 09:32:28;;;;;;;10.07;8.13;;;18.10;64.80;;;;;;5078995;28;20040;-44
2023/05/08 09:34:55;;;;;;;9.98;8.00;;;18.10;64.60;;;;;;5078490;28;20053;-45
2023/05/08 09:37:23;;;;;;;11.07;8.93;;;18.10;64.30;;;;;;5078953;28;20048;-42
2023/05/08 09:39:50;;;;;;;10.13;8.55;;;18.20;64.30;;;;;;5079454;28;20052;-44
2023/05/08 09:42:19;;;;;;;10.65;8.35;;;18.20;64.10;;;;;;5079940;28;20048;-45
2023/05/08 09:44:48;;;;;;;10.10;8.10;;;18.20;63.90;;;;;;5079387;28;20496;-43
2023/05/08 09:47:17;;;;;;;10.65;8.13;;;18.20;63.70;;;;;;5078208;28;20404;-44
2023/05/08 09:49:58;;;;;;;11.68;8.68;;;18.20;63.50;;;;;;5077209;28;20059;-44
2023/05/08 09:52:25;;;;;;;15.65;8.32;;;18.30;63.50;;;;;;5077754;28;20079;-48
2023/05/08 09:54:58;;;;;;;9.95;8.27;;;18.30;63.30;;;;;;5079535;28;20056;-45
2023/05/08 09:57:27;;;;;;;10.50;8.68;;;18.30;63.00;;;;;;5077189;28;20052;-44
2023/05/08 10:00:03;;;;;;;9.32;8.20;;;18.30;63.00;;;;;;5080338;28;20484;-37
2023/05/08 10:02:31;;;;;;;11.48;8.10;;;18.30;63.00;;;;;;5073755;28;20059;-37
2023/05/08 10:04:58;;;;;;;9.38;8.02;;;18.30;63.10;;;;;;5065555;28;20484;-37
2023/05/08 10:07:30;;;;;;;11.75;8.73;;;18.30;63.20;;;;;;5063290;28;20049;-37
2023/05/08 10:10:04;;;;;;;9.20;7.95;;;18.30;63.10;;;;;;5064594;28;20048;-40
2023/05/08 10:12:33;;;;;;;10.02;8.88;;;18.30;63.10;;;;;;5066028;28;20055;-39
2023/05/08 10:15:00;;;;;;;10.20;8.07;;;18.30;63.20;;;;;;5065250;28;20497;-43
2023/05/08 10:17:33;;;;;;;11.35;8.77;;;18.40;63.20;;;;;;5063322;28;20056;-41
2023/05/08 10:20:03;;;;;;;9.40;8.10;;;18.30;63.10;;;;;;5066333;28;20591;-38
2023/05/08 10:22:36;;;;;;;10.73;8.82;;;18.40;63.10;;;;;;5064723;28;20051;-37
2023/05/08 10:25:07;;;;;;;14.05;9.07;;;18.40;63.10;;;;;;5064891;28;20055;-39
2023/05/08 10:27:43;;;;;;;10.00;8.00;;;18.40;63.00;;;;;;5066182;28;20507;-38
2023/05/08 10:30:13;;;;;;;11.93;8.68;;;18.40;62.90;;;;;;5065076;28;20053;-40
2023/05/08 10:32:44;;;;;;;10.52;9.23;;;18.50;63.00;;;;;;5063907;28;20051;-44
2023/05/08 10:35:11;;;;;;;12.73;9.43;;;18.50;62.90;;;;;;5064664;28;20507;-43
2023/05/08 10:37:41;;;;;;;10.98;9.07;;;18.50;62.90;;;;;;5064846;28;20056;-40
2023/05/08 10:40:10;;;;;;;12.45;9.90;;;18.50;62.80;;;;;;5065116;28;20095;-39
2023/05/08 10:42:40;;;;;;;15.63;9.98;;;18.50;62.90;;;;;;5063257;28;20518;-38
2023/05/08 10:45:09;;;;;;;11.98;9.20;;;18.50;62.70;;;;;;5061557;28;20056;-36
2023/05/08 10:47:48;;;;;;;13.25;9.68;;;18.60;62.90;;;;;;5061232;28;20071;-39
2023/05/08 10:50:39;;;;;;;11.02;9.07;;;18.60;62.80;;;;;;5061791;28;20055;-40
2023/05/08 10:53:23;;;;;;;11.38;9.45;;;18.60;62.60;;;;;;5062140;28;20055;-39
2023/05/08 10:55:52;;;;;;;13.38;9.18;;;18.70;62.70;;;;;;5060959;28;20059;-40
2023/05/08 10:58:32;;;;;;;13.23;9.70;;;18.70;62.40;;;;;;5061062;28;20103;-39
2023/05/08 11:01:20;;;;;;;12.18;9.50;;;18.70;61.80;;;;;;5060716;28;20053;-38
2023/05/08 11:03:50;;;;;;;11.20;9.10;;;18.80;61.90;;;;;;5058424;28;20063;-38
2023/05/08 11:06:18;;;;;;;10.95;9.35;;;18.80;62.10;;;;;;5062977;28;20060;-37
2023/05/08 11:08:53;;;;;;;11.88;9.43;;;18.80;62.10;;;;;;5063771;28;20067;-40
2023/05/08 11:11:32;;;;;;;10.07;8.70;;;18.80;62.10;;;;;;5063519;28;20052;-39
2023/05/08 11:14:13;;;;;;;10.80;9.38;;;18.90;62.10;;;;;;5062806;28;20056;-37
2023/05/08 11:17:05;;;;;;;12.88;9.60;;;19.00;62.00;;;;;;5063095;28;20052;-44
2023/05/08 11:19:34;;;;;;;12.40;10.23;;;19.00;61.90;;;;;;5061523;28;20059;-38
2023/05/08 11:22:22;;;;;;;12.32;9.88;;;19.10;62.00;;;;;;5063710;28;20060;-41
2023/05/08 11:24:53;;;;;;;14.45;9.88;;;19.20;61.70;;;;;;5063867;28;20063;-37
2023/05/08 11:28:00;;;;;;;12.73;9.57;;;19.20;61.80;;;;;;5061828;28;20115;-41
2023/05/08 11:30:38;;;;;;;10.93;9.63;;;19.30;61.40;;;;;;5061812;28;20611;-38
2023/05/08 11:33:30;;;;;;;12.95;10.15;;;19.40;61.30;;;;;;5060191;28;20045;-38
2023/05/08 11:35:58;;;;;;;13.80;9.88;;;19.40;60.90;;;;;;5064511;28;20056;-38
2023/05/08 11:38:32;;;;;;;13.90;10.23;;;19.50;60.90;;;;;;5062222;28;20496;-38
2023/05/08 11:41:10;;;;;;;10.70;9.05;;;19.50;60.50;;;;;;5062900;28;21016;-42
2023/05/08 11:44:13;;;;;;;12.73;9.48;;;19.60;60.30;;;;;;5064648;28;20048;-39
2023/05/08 11:46:44;;;;;;;12.43;9.68;;;19.60;60.10;;;;;;5059847;28;20048;-38
2023/05/08 11:49:15;;;;;;;10.57;9.20;;;19.70;60.00;;;;;;5061689;28;20056;-40
2023/05/08 11:51:44;;;;;;;16.02;9.25;;;19.70;60.00;;;;;;5061860;28;20405;-41
2023/05/08 11:54:17;;;;;;;13.93;10.15;;;19.80;60.20;;;;;;5061852;28;20059;-42
2023/05/08 11:56:46;;;;;;;11.13;8.65;;;19.80;60.00;;;;;;5063548;28;20056;-39
2023/05/08 11:59:13;;;;;;;11.55;9.95;;;19.80;60.00;;;;;;5061661;28;20626;-41
2023/05/08 12:01:42;;;;;;;12.40;8.93;;;19.90;60.00;;;;;;5062296;28;20059;-40
2023/05/08 12:04:11;;;;;;;9.02;8.13;;;20.00;60.00;;;;;;5062926;28;20047;-39
2023/05/08 12:06:40;;;;;;;13.57;9.82;;;20.00;60.00;;;;;;5063779;28;20060;-40
2023/05/08 12:09:11;;;;;;;13.65;9.50;;;20.10;60.60;;;;;;5063269;28;20052;-39
2023/05/08 12:11:40;;;;;;;19.63;9.98;;;20.20;59.60;;;;;;5064509;28;20069;-39
2023/05/08 12:14:07;;;;;;;11.95;9.65;;;20.20;59.60;;;;;;5063081;28;20068;-39
2023/05/08 12:16:37;;;;;;;13.52;9.32;;;20.30;59.40;;;;;;5063146;28;20060;-39
2023/05/08 12:19:10;;;;;;;11.00;9.52;;;20.30;59.60;;;;;;5062865;28;20059;-41
2023/05/08 12:21:37;;;;;;;11.15;9.30;;;20.40;59.00;;;;;;5062921;28;20060;-42
2023/05/08 12:24:10;;;;;;;10.82;8.93;;;20.50;59.00;;;;;;5062159;28;20396;-38
2023/05/08 12:26:38;;;;;;;10.98;8.63;;;20.50;58.70;;;;;;5063081;28;20076;-39
2023/05/08 12:29:06;;;;;;;12.15;8.88;;;20.50;58.70;;;;;;5063707;28;20504;-38
2023/05/08 12:31:34;;;;;;;11.05;8.95;;;20.60;58.70;;;;;;5061532;28;20053;-40
2023/05/08 12:34:03;;;;;;;12.18;8.77;;;20.60;58.60;;;;;;5061114;28;20915;-38
2023/05/08 12:36:35;;;;;;;10.07;8.10;;;20.60;58.40;;;;;;5062618;28;20067;-40
2023/05/08 12:39:12;;;;;;;10.07;8.35;;;20.70;58.40;;;;;;5062935;28;20110;-39
2023/05/08 12:41:46;;;;;;;11.65;9.00;;;20.70;58.20;;;;;;5062677;28;20063;-40
2023/05/08 12:44:18;;;;;;;11.20;8.75;;;20.80;58.30;;;;;;5062253;28;21324;-39
2023/05/08 12:46:50;;;;;;;11.52;8.65;;;20.80;58.00;;;;;;5063494;28;20051;-43
2023/05/08 12:49:28;;;;;;;10.50;8.60;;;20.80;57.70;;;;;;5061486;28;20069;-40
2023/05/08 12:52:05;;;;;;;10.98;8.75;;;20.80;57.60;;;;;;5062509;28;20060;-39
2023/05/08 12:54:34;;;;;;;24.25;9.20;;;20.80;57.30;;;;;;5062532;28;20049;-37
2023/05/08 12:57:06;;;;;;;9.65;8.18;;;20.90;57.40;;;;;;5062638;28;20052;-39
2023/05/08 12:59:34;;;;;;;12.25;8.68;;;20.90;57.30;;;;;;5062377;28;20527;-38
2023/05/08 13:02:01;;;;;;;12.35;8.45;;;20.90;57.10;;;;;;5061563;28;20393;-40
2023/05/08 13:04:29;;;;;;;9.43;7.82;;;20.90;57.00;;;;;;5061609;28;20060;-37
2023/05/08 13:06:57;;;;;;;8.77;7.85;;;21.00;57.00;;;;;;5062999;28;20052;-41
2023/05/08 13:09:25;;;;;;;9.40;7.88;;;21.00;57.10;;;;;;5062361;28;20496;-39
2023/05/08 13:11:52;;;;;;;9.38;7.93;;;21.00;57.10;;;;;;5063131;28;20048;-39
2023/05/08 13:14:20;;;;;;;8.70;7.45;;;21.00;57.00;;;;;;5062115;28;20484;-38
2023/05/08 13:16:47;;;;;;;10.02;8.40;;;21.10;57.00;;;;;;5061931;28;20056;-38
2023/05/08 13:19:15;;;;;;;13.02;8.13;;;21.10;57.00;;;;;;5061754;28;20063;-42
2023/05/08 13:21:46;;;;;;;9.52;7.60;;;21.10;56.90;;;;;;5062120;28;20053;-38
2023/05/08 13:24:13;;;;;;;10.52;8.15;;;21.20;56.90;;;;;;5061560;28;20044;-39
2023/05/08 13:26:42;;;;;;;9.93;8.35;;;21.20;56.90;;;;;;5062899;28;20057;-42
2023/05/08 13:29:09;;;;;;;8.93;8.00;;;21.20;56.70;;;;;;5061402;28;20052;-44
2023/05/08 13:31:36;;;;;;;11.02;8.27;;;21.30;56.40;;;;;;5063407;28;20052;-41
2023/05/08 13:34:04;;;;;;;9.20;8.30;;;21.30;56.50;;;;;;5061008;28;20048;-41